createdAt,value
2017-05-13T00:01:23.315Z,3.38
2017-05-13T00:03:53.325Z,3.12
2017-05-13T00:06:23.323Z,3.68
2017-05-13T00:08:53.302Z,3.80
2017-05-13T00:11:23.279Z,3.72
2017-05-13T00:13:53.251Z,4.04
2017-05-13T00:16:23.251Z,4.18
2017-05-13T00:18:53.247Z,3.50
2017-05-13T00:21:24.091Z,3.54
2017-05-13T00:23:54.789Z,4.04
2017-05-13T00:26:24.779Z,4.22
2017-05-13T00:28:54.762Z,3.96
2017-05-13T00:31:24.721Z,4.12
2017-05-13T00:33:54.865Z,3.76
2017-05-13T00:36:24.853Z,4.38
2017-05-13T00:38:54.874Z,4.00
2017-05-13T00:41:25.555Z,4.06
2017-05-13T00:43:55.529Z,4.10
2017-05-13T00:46:25.537Z,4.56
2017-05-13T00:48:55.521Z,4.20
2017-05-13T00:51:25.760Z,4.40
2017-05-13T00:53:55.736Z,4.62
2017-05-13T00:56:25.713Z,4.72
2017-05-13T00:58:55.701Z,5.20
2017-05-13T01:01:25.660Z,4.64
2017-05-13T01:03:55.971Z,5.10
2017-05-13T01:06:25.935Z,4.50
2017-05-13T01:08:55.927Z,5.20
2017-05-13T01:11:26.653Z,4.44
2017-05-13T01:13:58.381Z,4.74
2017-05-13T01:16:28.346Z,4.76
2017-05-13T01:18:58.388Z,5.74
2017-05-13T01:21:29.060Z,5.80
2017-05-13T01:23:59.401Z,5.64
2017-05-13T01:26:30.072Z,4.60
2017-05-13T01:29:00.268Z,5.96
2017-05-13T01:31:30.988Z,5.34
2017-05-13T01:34:02.032Z,5.30
2017-05-13T01:36:31.660Z,5.50
2017-05-13T01:39:01.657Z,5.60
2017-05-13T01:41:31.673Z,4.98
2017-05-13T01:44:02.009Z,5.74
2017-05-13T01:46:31.984Z,6.14
2017-05-13T01:49:01.958Z,5.80
2017-05-13T01:51:31.941Z,5.48
2017-05-13T01:54:02.672Z,5.40
2017-05-13T01:56:32.659Z,5.46
2017-05-13T01:59:02.640Z,5.00
2017-05-13T02:01:32.880Z,5.22
2017-05-13T02:04:02.844Z,5.42
2017-05-13T02:06:32.844Z,4.92
2017-05-13T02:09:03.228Z,6.06
2017-05-13T02:11:33.234Z,5.78
2017-05-13T02:14:03.227Z,6.34
2017-05-13T02:16:33.221Z,5.90
2017-05-13T02:19:03.955Z,6.88
2017-05-13T02:21:35.068Z,6.90
2017-05-13T02:24:05.040Z,7.56
2017-05-13T02:26:35.036Z,6.72
2017-05-13T02:29:05.052Z,5.18
2017-05-13T02:31:35.041Z,5.32
2017-05-13T02:34:05.028Z,5.22
2017-05-13T02:36:35.028Z,4.30
2017-05-13T02:39:04.132Z,4.26
2017-05-13T02:41:34.097Z,4.80
2017-05-13T02:44:05.054Z,4.40
2017-05-13T02:46:35.009Z,5.18
2017-05-13T02:49:04.981Z,4.94
2017-05-13T02:51:34.957Z,5.18
2017-05-13T02:54:04.955Z,5.58
2017-05-13T02:56:34.968Z,5.68
2017-05-13T02:59:04.951Z,4.78
2017-05-13T03:01:35.621Z,4.66
2017-05-13T03:04:05.595Z,4.84
2017-05-13T03:06:35.584Z,4.18
2017-05-13T03:09:06.652Z,4.38
2017-05-13T03:11:36.671Z,4.92
2017-05-13T03:14:06.985Z,3.74
2017-05-13T03:16:36.964Z,3.90
2017-05-13T03:19:06.949Z,4.48
2017-05-13T03:21:36.921Z,4.02
2017-05-13T03:24:07.672Z,4.42
2017-05-13T03:26:37.670Z,4.34
2017-05-13T03:29:07.645Z,4.20
2017-05-13T03:31:38.001Z,4.62
2017-05-13T03:34:08.712Z,4.60
2017-05-13T03:36:38.700Z,4.34
2017-05-13T03:39:08.693Z,4.32
2017-05-13T03:41:38.654Z,4.14
2017-05-13T03:44:08.800Z,4.50
2017-05-13T03:46:39.517Z,4.28
2017-05-13T03:49:09.861Z,4.62
2017-05-13T03:51:40.568Z,4.44
2017-05-13T03:54:10.554Z,4.38
2017-05-13T03:56:40.532Z,4.48
2017-05-13T03:59:10.517Z,4.36
2017-05-13T04:01:40.508Z,4.64
2017-05-13T04:04:10.492Z,4.48
2017-05-13T04:06:40.481Z,5.36
2017-05-13T04:09:11.334Z,4.16
2017-05-13T04:11:41.312Z,4.48
2017-05-13T04:14:11.296Z,4.14
2017-05-13T04:16:41.288Z,4.52
2017-05-13T04:19:11.328Z,4.30
2017-05-13T04:21:41.327Z,4.52
2017-05-13T04:24:11.318Z,4.40
2017-05-13T04:26:41.324Z,4.92
2017-05-13T04:29:12.265Z,4.32
2017-05-13T04:31:42.982Z,4.90
2017-05-13T04:34:13.220Z,5.04
2017-05-13T04:36:43.920Z,4.66
2017-05-13T04:39:14.273Z,4.60
2017-05-13T04:41:44.264Z,5.24
2017-05-13T04:44:14.222Z,4.32
2017-05-13T04:46:44.005Z,5.06
2017-05-13T04:49:14.739Z,5.78
2017-05-13T04:51:45.472Z,4.92
2017-05-13T04:54:16.416Z,5.32
2017-05-13T04:56:46.404Z,4.70
2017-05-13T04:59:16.406Z,5.20
2017-05-13T05:01:47.066Z,5.78
2017-05-13T05:04:17.416Z,5.54
2017-05-13T05:06:47.522Z,5.40
2017-05-13T05:09:17.766Z,4.50
2017-05-13T05:11:47.720Z,5.24
2017-05-13T05:14:17.694Z,5.20
2017-05-13T05:16:47.841Z,5.02
2017-05-13T05:19:17.803Z,4.90
2017-05-13T05:21:47.835Z,5.60
2017-05-13T05:24:17.832Z,5.14
2017-05-13T05:26:47.809Z,5.88
2017-05-13T05:29:17.792Z,5.32
2017-05-13T05:31:47.833Z,6.06
2017-05-13T05:34:18.000Z,5.58
2017-05-13T05:36:48.741Z,5.72
2017-05-13T05:39:19.680Z,5.80
2017-05-13T05:41:50.389Z,5.10
2017-05-13T05:44:20.524Z,5.56
2017-05-13T05:46:51.561Z,4.94
2017-05-13T05:49:22.573Z,5.40
2017-05-13T05:51:52.605Z,5.32
2017-05-13T05:54:23.568Z,4.74
2017-05-13T05:56:53.543Z,5.74
2017-05-13T05:59:23.769Z,4.56
2017-05-13T06:01:54.533Z,4.74
2017-05-13T06:04:25.735Z,3.34
2017-05-13T06:06:55.697Z,3.42
2017-05-13T06:09:25.848Z,3.56
2017-05-13T06:11:56.167Z,3.42
2017-05-13T06:14:26.274Z,3.28
2017-05-13T06:16:56.261Z,3.70
2017-05-13T06:19:27.987Z,3.20
2017-05-13T06:21:58.277Z,3.24
2017-05-13T06:24:28.769Z,3.18
2017-05-13T06:26:59.006Z,3.46
2017-05-13T06:29:29.103Z,3.26
2017-05-13T06:31:59.231Z,2.66
2017-05-13T06:34:29.473Z,3.04
2017-05-13T06:36:59.599Z,2.40
2017-05-13T06:39:29.717Z,2.56
2017-05-13T06:41:59.811Z,6.92
2017-05-13T06:44:29.871Z,13.18
2017-05-13T06:47:00.169Z,42.14
2017-05-13T06:49:30.239Z,22.82
2017-05-13T06:52:00.943Z,9.70
2017-05-13T06:54:31.325Z,10.44
2017-05-13T06:57:01.470Z,2.42
2017-05-13T06:59:33.293Z,12.02
2017-05-13T07:02:03.253Z,4.70
2017-05-13T07:04:33.044Z,8.60
2017-05-13T07:07:03.076Z,10.48
2017-05-13T07:09:33.156Z,7.46
2017-05-13T07:12:03.296Z,4.72
2017-05-13T07:14:33.425Z,5.60
2017-05-13T07:17:03.403Z,4.68
2017-05-13T07:19:34.466Z,4.34
2017-05-13T07:22:04.437Z,3.02
2017-05-13T07:24:34.433Z,4.18
2017-05-13T07:27:04.421Z,5.28
2017-05-13T07:29:34.453Z,3.60
2017-05-13T07:32:04.413Z,3.22
2017-05-13T07:34:34.408Z,2.40
2017-05-13T07:37:04.392Z,1.64
2017-05-13T07:39:34.377Z,2.30
2017-05-13T07:42:05.114Z,3.24
2017-05-13T07:44:36.108Z,1.92
2017-05-13T07:47:06.086Z,2.30
2017-05-13T07:49:36.072Z,3.84
2017-05-13T07:52:06.788Z,2.24
2017-05-13T07:54:36.765Z,2.70
2017-05-13T07:57:06.760Z,3.08
2017-05-13T07:59:36.728Z,10.34
2017-05-13T08:02:07.027Z,8.70
2017-05-13T08:04:37.000Z,14.48
2017-05-13T08:07:06.984Z,7.78
2017-05-13T08:09:36.948Z,4.90
2017-05-13T08:12:06.933Z,4.36
2017-05-13T08:14:37.646Z,2.20
2017-05-13T08:17:07.636Z,4.88
2017-05-13T08:19:37.638Z,6.40
2017-05-13T08:22:07.618Z,4.44
2017-05-13T08:24:38.558Z,5.38
2017-05-13T08:27:09.311Z,4.04
2017-05-13T08:29:40.258Z,4.66
2017-05-13T08:32:10.234Z,3.42
2017-05-13T08:34:41.383Z,10.86
2017-05-13T08:37:11.373Z,4.38
2017-05-13T08:39:41.416Z,5.28
2017-05-13T08:42:12.125Z,4.22
2017-05-13T08:44:42.287Z,2.18
2017-05-13T08:47:12.243Z,2.68
2017-05-13T08:49:42.231Z,3.90
2017-05-13T08:52:12.213Z,2.92
2017-05-13T08:54:43.344Z,2.16
2017-05-13T08:57:13.322Z,2.30
2017-05-13T08:59:43.357Z,1.32
2017-05-13T09:02:13.353Z,3.60
2017-05-13T09:04:43.347Z,3.86
2017-05-13T09:07:13.341Z,2.54
2017-05-13T09:09:44.374Z,3.00
2017-05-13T09:12:15.084Z,1.96
2017-05-13T09:14:46.049Z,2.54
2017-05-13T09:17:16.045Z,2.16
2017-05-13T09:19:46.031Z,2.20
2017-05-13T09:22:16.021Z,1.88
2017-05-13T09:24:46.001Z,2.10
2017-05-13T09:27:16.734Z,2.02
2017-05-13T09:29:47.681Z,1.94
2017-05-13T09:32:18.397Z,1.40
2017-05-13T09:34:49.454Z,1.12
2017-05-13T09:37:20.181Z,2.72
2017-05-13T09:39:51.125Z,2.76
2017-05-13T09:42:21.118Z,2.74
2017-05-13T09:44:51.087Z,1.78
2017-05-13T09:47:21.075Z,1.64
2017-05-13T09:49:51.065Z,1.44
2017-05-13T09:52:21.059Z,2.92
2017-05-13T09:54:51.035Z,2.50
2017-05-13T09:57:21.023Z,2.00
2017-05-13T09:59:51.746Z,7.40
2017-05-13T10:02:22.477Z,5.38
2017-05-13T10:04:52.475Z,3.00
2017-05-13T10:07:22.457Z,2.40
2017-05-13T10:09:52.451Z,2.38
2017-05-13T10:12:22.442Z,2.10
2017-05-13T10:14:53.496Z,3.50
2017-05-13T10:17:24.201Z,2.32
2017-05-13T10:19:54.358Z,3.10
2017-05-13T10:22:24.325Z,1.92
2017-05-13T10:24:54.302Z,1.90
2017-05-13T10:27:25.705Z,1.62
2017-05-13T10:29:56.066Z,3.32
2017-05-13T10:32:26.031Z,2.70
2017-05-13T10:34:56.036Z,2.56
2017-05-13T10:37:26.009Z,2.62
2017-05-13T10:39:56.002Z,3.72
2017-05-13T10:42:26.738Z,2.54
2017-05-13T10:44:57.685Z,2.74
2017-05-13T10:47:28.397Z,2.24
2017-05-13T10:49:59.553Z,1.86
2017-05-13T10:52:30.272Z,2.82
2017-05-13T10:55:01.121Z,3.06
2017-05-13T10:57:31.845Z,6.92
2017-05-13T11:00:01.810Z,3.24
2017-05-13T11:02:31.793Z,3.60
2017-05-13T11:05:02.515Z,3.04
2017-05-13T11:07:33.235Z,3.20
2017-05-13T11:10:03.213Z,3.70
2017-05-13T11:12:33.217Z,3.72
2017-05-13T11:15:03.555Z,2.90
2017-05-13T11:17:33.833Z,1.72
2017-05-13T11:20:04.546Z,5.20
2017-05-13T11:22:34.790Z,3.68
2017-05-13T11:25:04.755Z,2.60
2017-05-13T11:27:34.744Z,2.72
2017-05-13T11:30:04.741Z,2.82
2017-05-13T11:32:34.729Z,2.30
2017-05-13T11:35:04.963Z,2.08
2017-05-13T11:37:35.689Z,2.44
2017-05-13T11:40:05.665Z,1.60
2017-05-13T11:42:35.643Z,1.62
2017-05-13T11:45:05.637Z,1.80
2017-05-13T11:47:36.525Z,1.60
2017-05-13T11:50:06.765Z,1.56
2017-05-13T11:52:36.728Z,1.60
2017-05-13T11:55:06.745Z,2.46
2017-05-13T11:57:36.729Z,2.60
2017-05-13T12:00:06.716Z,1.94
2017-05-13T12:02:36.880Z,2.50
2017-05-13T12:05:07.591Z,2.32
2017-05-13T12:07:37.892Z,2.32
2017-05-13T12:10:07.860Z,1.80
2017-05-13T12:12:37.855Z,2.50
2017-05-13T12:15:07.838Z,2.02
2017-05-13T12:17:37.825Z,1.36
2017-05-13T12:20:07.813Z,3.06
2017-05-13T12:22:38.551Z,2.50
2017-05-13T12:25:09.273Z,1.72
2017-05-13T12:27:40.416Z,1.70
2017-05-13T12:30:11.133Z,1.86
2017-05-13T12:32:41.404Z,1.74
2017-05-13T12:35:11.382Z,1.64
2017-05-13T12:37:42.341Z,1.68
2017-05-13T12:40:12.313Z,1.62
2017-05-13T12:42:42.312Z,1.80
2017-05-13T12:45:12.290Z,1.40
2017-05-13T12:47:42.271Z,1.22
2017-05-13T12:50:12.333Z,1.38
2017-05-13T12:52:43.239Z,1.70
2017-05-13T12:55:13.960Z,1.44
2017-05-13T12:57:44.139Z,1.64
2017-05-13T13:00:14.127Z,1.40
2017-05-13T13:02:44.790Z,1.40
2017-05-13T13:05:14.801Z,1.34
2017-05-13T13:07:44.781Z,1.42
2017-05-13T13:10:15.830Z,1.20
2017-05-13T13:12:45.796Z,1.28
2017-05-13T13:15:15.944Z,1.48
2017-05-13T13:17:46.649Z,1.90
2017-05-13T13:20:16.643Z,2.80
2017-05-13T13:22:46.636Z,3.48
2017-05-13T13:25:16.825Z,2.64
2017-05-13T13:27:46.905Z,2.80
2017-05-13T13:30:16.900Z,2.20
2017-05-13T13:32:46.893Z,2.34
2017-05-13T13:35:16.924Z,2.10
2017-05-13T13:37:47.014Z,2.72
2017-05-13T13:40:18.044Z,2.02
2017-05-13T13:42:48.794Z,1.96
2017-05-13T13:45:19.322Z,1.54
2017-05-13T13:47:49.295Z,1.88
2017-05-13T13:50:19.364Z,1.34
2017-05-13T13:52:49.557Z,3.58
2017-05-13T13:55:20.716Z,1.70
2017-05-13T13:57:51.433Z,4.58
2017-05-13T14:00:21.674Z,2.80
2017-05-13T14:02:51.744Z,1.82
2017-05-13T14:05:21.727Z,1.30
2017-05-13T14:07:51.714Z,1.60
2017-05-13T14:10:22.456Z,1.72
2017-05-13T14:12:52.477Z,1.84
2017-05-13T14:15:22.538Z,1.40
2017-05-13T14:17:52.903Z,0.94
2017-05-13T14:20:23.282Z,1.80
2017-05-13T14:22:54.211Z,1.80
2017-05-13T14:25:24.375Z,1.60
2017-05-13T14:27:54.365Z,2.54
2017-05-13T14:30:24.573Z,1.70
2017-05-13T14:32:54.869Z,1.94
2017-05-13T14:35:25.405Z,1.82
2017-05-13T14:37:55.601Z,2.14
2017-05-13T14:40:25.737Z,2.26
2017-05-13T14:42:55.967Z,1.76
2017-05-13T14:45:26.667Z,1.20
2017-05-13T14:47:57.423Z,1.20
2017-05-13T14:50:27.734Z,2.20
2017-05-13T14:52:57.859Z,2.18
2017-05-13T14:55:28.025Z,1.80
2017-05-13T14:57:57.998Z,1.60
2017-05-13T15:00:28.247Z,1.66
2017-05-13T15:02:59.017Z,1.92
2017-05-13T15:05:29.357Z,0.98
2017-05-13T15:07:59.325Z,1.06
2017-05-13T15:10:29.320Z,1.00
2017-05-13T15:12:59.328Z,1.22
2017-05-13T15:15:29.833Z,1.20
2017-05-13T15:18:00.309Z,0.92
2017-05-13T15:20:30.757Z,1.80
2017-05-13T15:23:00.756Z,1.36
2017-05-13T15:25:31.497Z,1.70
2017-05-13T15:28:01.488Z,1.40
2017-05-13T15:30:31.469Z,1.56
2017-05-13T15:33:01.465Z,2.20
2017-05-13T15:35:32.209Z,1.46
2017-05-13T15:38:02.621Z,1.00
2017-05-13T15:40:33.341Z,1.04
2017-05-13T15:43:04.477Z,1.30
2017-05-13T15:45:36.252Z,0.90
2017-05-13T15:48:06.696Z,1.18
2017-05-13T15:50:36.811Z,1.12
2017-05-13T15:53:07.145Z,1.64
2017-05-13T15:55:37.239Z,1.10
2017-05-13T15:58:08.274Z,1.44
2017-05-13T16:00:38.997Z,1.08
2017-05-13T16:03:09.115Z,1.20
2017-05-13T16:05:39.852Z,1.10
2017-05-13T16:08:10.085Z,1.40
2017-05-13T16:10:40.829Z,2.08
2017-05-13T16:13:10.717Z,1.76
2017-05-13T16:15:40.859Z,1.80
2017-05-13T16:18:10.875Z,1.36
2017-05-13T16:20:41.682Z,2.50
2017-05-13T16:23:12.593Z,1.74
2017-05-13T16:25:42.587Z,1.58
2017-05-13T16:28:14.913Z,1.62
2017-05-13T16:30:45.126Z,1.44
2017-05-13T16:33:15.429Z,1.74
2017-05-13T16:35:45.413Z,1.46
2017-05-13T16:38:15.399Z,1.52
2017-05-13T16:40:45.425Z,1.64
2017-05-13T16:43:15.401Z,2.12
2017-05-13T16:45:45.485Z,2.32
2017-05-13T16:48:15.516Z,1.60
2017-05-13T16:50:45.819Z,1.56
2017-05-13T16:53:16.369Z,1.70
2017-05-13T16:55:46.335Z,1.30
2017-05-13T16:58:16.815Z,1.60
2017-05-13T17:00:48.047Z,1.14
2017-05-13T17:03:18.224Z,1.32
2017-05-13T17:05:48.624Z,1.24
2017-05-13T17:08:18.707Z,1.34
2017-05-13T17:10:48.889Z,2.34
2017-05-13T17:13:19.093Z,1.52
2017-05-13T17:15:50.229Z,1.70
2017-05-13T17:18:21.261Z,1.60
2017-05-13T17:20:51.974Z,4.40
2017-05-13T17:23:22.345Z,2.18
2017-05-13T17:25:52.328Z,4.60
2017-05-13T17:28:22.309Z,4.16
2017-05-13T17:30:52.288Z,2.06
2017-05-13T17:33:22.281Z,1.70
2017-05-13T17:35:52.280Z,1.40
2017-05-13T17:38:22.260Z,3.22
2017-05-13T17:40:52.263Z,1.30
2017-05-13T17:43:22.257Z,2.20
2017-05-13T17:45:52.984Z,1.50
2017-05-13T17:48:23.859Z,1.40
2017-05-13T17:50:53.820Z,2.42
2017-05-13T17:53:23.808Z,1.76
2017-05-13T17:55:53.801Z,1.32
2017-05-13T17:58:23.776Z,1.30
2017-05-13T18:00:54.821Z,3.42
2017-05-13T18:03:25.537Z,1.02
2017-05-13T18:05:55.673Z,1.56
2017-05-13T18:08:26.396Z,2.34
2017-05-13T18:10:57.448Z,2.74
2017-05-13T18:13:28.156Z,1.76
2017-05-13T18:15:58.614Z,1.60
2017-05-13T18:18:29.320Z,1.96
2017-05-13T18:21:00.821Z,2.94
2017-05-13T18:23:30.813Z,1.90
2017-05-13T18:26:01.995Z,2.24
2017-05-13T18:28:32.006Z,1.82
2017-05-13T18:31:02.021Z,2.30
2017-05-13T18:33:32.017Z,3.48
2017-05-13T18:36:01.996Z,2.38
2017-05-13T18:38:31.976Z,2.40
2017-05-13T18:41:02.021Z,2.36
2017-05-13T18:43:31.989Z,2.52
2017-05-13T18:46:01.973Z,2.40
2017-05-13T18:48:31.977Z,2.16
2017-05-13T18:51:01.985Z,2.62
2017-05-13T18:53:32.002Z,2.82
2017-05-13T18:56:02.672Z,2.68
2017-05-13T18:58:32.658Z,3.30
2017-05-13T19:01:02.620Z,3.86
2017-05-13T19:03:33.020Z,3.08
2017-05-13T19:06:03.014Z,2.66
2017-05-13T19:08:33.746Z,2.56
2017-05-13T19:11:03.730Z,3.50
2017-05-13T19:13:33.692Z,2.94
2017-05-13T19:16:04.854Z,3.00
2017-05-13T19:18:34.816Z,3.32
2017-05-13T19:21:04.439Z,3.16
2017-05-13T19:23:34.430Z,4.20
2017-05-13T19:26:04.414Z,4.22
2017-05-13T19:28:34.363Z,4.06
2017-05-13T19:31:04.363Z,4.52
2017-05-13T19:33:34.352Z,3.98
2017-05-13T19:36:04.332Z,4.44
2017-05-13T19:38:35.072Z,4.20
2017-05-13T19:41:05.419Z,4.48
2017-05-13T19:43:35.404Z,3.74
2017-05-13T19:46:05.400Z,5.68
2017-05-13T19:48:35.405Z,4.44
2017-05-13T19:51:05.390Z,4.60
2017-05-13T19:53:35.371Z,4.90
2017-05-13T19:56:06.219Z,3.54
2017-05-13T19:58:36.934Z,3.54
2017-05-13T20:01:07.286Z,3.22
2017-05-13T20:03:38.001Z,3.12
2017-05-13T20:06:09.156Z,3.08
2017-05-13T20:08:39.827Z,3.30
2017-05-13T20:11:10.003Z,3.14
2017-05-13T20:13:40.729Z,3.70
2017-05-13T20:16:11.668Z,3.82
2017-05-13T20:18:41.656Z,4.28
2017-05-13T20:21:11.449Z,5.16
2017-05-13T20:23:41.423Z,5.10
2017-05-13T20:26:12.343Z,5.90
2017-05-13T20:28:43.074Z,6.34
2017-05-13T20:31:13.810Z,6.54
2017-05-13T20:33:43.794Z,8.04
2017-05-13T20:36:14.064Z,8.58
2017-05-13T20:38:44.261Z,7.34
2017-05-13T20:41:15.209Z,6.96
2017-05-13T20:43:45.371Z,6.82
2017-05-13T20:46:15.585Z,8.08
2017-05-13T20:48:45.667Z,7.34
2017-05-13T20:51:16.607Z,7.74
2017-05-13T20:53:47.317Z,7.30
2017-05-13T20:56:17.576Z,7.76
2017-05-13T20:58:47.543Z,8.54
2017-05-13T21:01:17.702Z,9.80
2017-05-13T21:03:47.677Z,8.22
2017-05-13T21:06:18.037Z,8.12
2017-05-13T21:08:48.757Z,7.08
2017-05-13T21:11:19.698Z,8.08
2017-05-13T21:13:50.419Z,8.50
2017-05-13T21:16:20.515Z,9.00
2017-05-13T21:18:50.503Z,9.32
2017-05-13T21:21:20.686Z,9.26
2017-05-13T21:23:51.409Z,7.98
2017-05-13T21:26:21.549Z,8.76
2017-05-13T21:28:52.216Z,7.58
2017-05-13T21:31:23.109Z,8.52
2017-05-13T21:33:53.833Z,8.64
2017-05-13T21:36:24.642Z,8.56
2017-05-13T21:38:54.617Z,7.82
2017-05-13T21:41:24.809Z,7.30
2017-05-13T21:43:54.817Z,8.68
2017-05-13T21:46:25.772Z,8.24
2017-05-13T21:48:55.747Z,7.98
2017-05-13T21:51:26.001Z,7.80
2017-05-13T21:53:56.709Z,8.00
2017-05-13T21:56:26.959Z,6.92
2017-05-13T21:58:57.723Z,7.20
2017-05-13T22:01:27.881Z,7.72
2017-05-13T22:03:57.849Z,8.84
2017-05-13T22:06:28.151Z,8.92
2017-05-13T22:08:58.146Z,7.86
2017-05-13T22:11:28.585Z,7.48
2017-05-13T22:13:59.317Z,8.00
2017-05-13T22:16:30.267Z,6.92
2017-05-13T22:19:00.262Z,6.88
2017-05-13T22:21:30.501Z,7.04
2017-05-13T22:24:01.913Z,7.48
2017-05-13T22:26:32.055Z,7.10
2017-05-13T22:29:02.011Z,8.06
2017-05-13T22:31:32.214Z,7.16
2017-05-13T22:34:02.933Z,7.58
2017-05-13T22:36:33.879Z,6.80
2017-05-13T22:39:03.324Z,6.48
2017-05-13T22:41:33.305Z,7.22
2017-05-13T22:44:03.301Z,7.20
2017-05-13T22:46:34.237Z,7.02
2017-05-13T22:49:04.941Z,7.96
2017-05-13T22:51:35.189Z,7.88
2017-05-13T22:54:05.885Z,7.54
2017-05-13T22:56:36.041Z,8.30
2017-05-13T22:59:06.744Z,7.34
2017-05-13T23:01:36.895Z,7.50
2017-05-13T23:04:07.594Z,7.40
2017-05-13T23:06:37.753Z,7.86
2017-05-13T23:09:08.449Z,8.30
2017-05-13T23:11:38.805Z,7.94
2017-05-13T23:14:09.505Z,7.58
2017-05-13T23:16:39.658Z,7.86
2017-05-13T23:19:10.303Z,6.86
2017-05-13T23:21:40.407Z,7.14
2017-05-13T23:24:11.100Z,7.80
2017-05-13T23:26:41.257Z,6.40
2017-05-13T23:29:11.231Z,7.20
2017-05-13T23:31:41.401Z,7.50
2017-05-13T23:34:12.103Z,8.12
2017-05-13T23:36:42.341Z,7.30
2017-05-13T23:39:12.332Z,7.50
2017-05-13T23:41:42.587Z,8.08
2017-05-13T23:44:13.301Z,7.20
2017-05-13T23:46:44.277Z,7.40
2017-05-13T23:49:14.250Z,7.10
2017-05-13T23:51:45.218Z,7.62
2017-05-13T23:54:15.199Z,8.04
2017-05-13T23:56:45.441Z,7.82
2017-05-13T23:59:15.440Z,7.98
